Time;durP1;ratioP1;P1;durP2;ratioP2;P2;SDS_P1;SDS_P2;PMS_P1;PMS_P2;Temp;Humidity;BMP_temperature;BMP_pressure;BME280_temperature;BME280_humidity;BME280_pressure;Samples;Min_cycle;Max_cycle;Signal;HPM_P1;HPM_P2
2023/11/11 00:02:16;;;;;;;29.35;18.58;;;;;;;;;;13002592;22;20355;-82
2023/11/11 00:07:18;;;;;;;31.97;18.93;;;;;;;;;;12981890;22;20452;-83
2023/11/11 00:12:21;;;;;;;31.90;18.07;;;;;;;;;;12980470;22;20424;-84
2023/11/11 00:17:25;;;;;;;29.52;18.00;;;;;;;;;;12980531;22;20420;-83
2023/11/11 00:22:28;;;;;;;28.40;17.00;;;;;;;;;;12980901;22;20428;-84
2023/11/11 00:27:31;;;;;;;30.27;18.43;;;;;;;;;;12981019;22;20413;-83
2023/11/11 00:32:35;;;;;;;32.42;18.73;;;;;;;;;;13001815;22;20359;-83
2023/11/11 00:37:37;;;;;;;33.30;19.10;;;;;;;;;;13001826;22;20398;-83
2023/11/11 00:42:40;;;;;;;33.77;18.73;;;;;;;;;;12979862;22;20371;-82
2023/11/11 00:47:44;;;;;;;32.10;18.83;;;;;;;;;;13002195;22;20362;-83
2023/11/11 00:52:46;;;;;;;30.48;17.98;;;;;;;;;;12980561;22;20379;-83
2023/11/11 00:57:48;;;;;;;31.80;18.27;;;;;;;;;;12979435;22;20535;-83
2023/11/11 01:02:54;;;;;;;32.53;17.57;;;;;;;;;;12980656;22;20374;-83
2023/11/11 01:07:56;;;;;;;29.77;17.65;;;;;;;;;;13001507;22;20810;-84
2023/11/11 01:12:59;;;;;;;33.25;18.50;;;;;;;;;;12977526;22;20359;-83
2023/11/11 01:18:03;;;;;;;33.13;18.30;;;;;;;;;;12998458;22;20355;-83
2023/11/11 01:23:05;;;;;;;33.42;18.67;;;;;;;;;;12997410;22;20374;-82
2023/11/11 01:28:07;;;;;;;35.20;19.20;;;;;;;;;;12976362;22;20876;-83
2023/11/11 01:33:11;;;;;;;34.73;18.90;;;;;;;;;;12974012;22;20472;-83
2023/11/11 01:38:14;;;;;;;34.30;18.42;;;;;;;;;;12975869;22;20363;-82
2023/11/11 01:43:17;;;;;;;34.75;17.90;;;;;;;;;;12979646;22;20401;-83
2023/11/11 01:48:21;;;;;;;37.90;17.27;;;;;;;;;;12980588;22;20370;-84
2023/11/11 01:53:24;;;;;;;33.67;18.60;;;;;;;;;;12979779;22;20362;-82
2023/11/11 01:58:28;;;;;;;35.30;18.73;;;;;;;;;;12979851;22;20432;-83
2023/11/11 02:03:34;;;;;;;37.97;18.70;;;;;;;;;;12999127;22;20917;-83
2023/11/11 02:08:37;;;;;;;39.28;18.90;;;;;;;;;;12979247;22;20416;-83
2023/11/11 02:13:39;;;;;;;37.90;18.23;;;;;;;;;;13001208;22;20428;-82
2023/11/11 02:18:43;;;;;;;37.60;18.40;;;;;;;;;;12979684;22;20366;-85
2023/11/11 02:23:49;;;;;;;37.17;16.67;;;;;;;;;;12979265;22;20451;-83
2023/11/11 02:28:52;;;;;;;36.60;17.20;;;;;;;;;;12978881;22;20366;-85
2023/11/11 02:33:54;;;;;;;32.30;17.52;;;;;;;;;;12978689;22;20366;-86
2023/11/11 02:38:58;;;;;;;34.10;17.02;;;;;;;;;;12980351;22;20425;-82
2023/11/11 02:44:00;;;;;;;30.25;16.20;;;;;;;;;;12979465;22;20382;-83
2023/11/11 02:49:04;;;;;;;28.42;15.50;;;;;;;;;;12979569;22;20367;-83
2023/11/11 02:54:08;;;;;;;28.38;15.77;;;;;;;;;;12986504;22;20358;-84
2023/11/11 02:59:10;;;;;;;26.52;15.88;;;;;;;;;;12978945;22;20397;-85
2023/11/11 03:04:13;;;;;;;31.13;15.90;;;;;;;;;;12978122;22;20587;-85
2023/11/11 03:09:16;;;;;;;27.75;14.40;;;;;;;;;;12982606;22;20371;-85
2023/11/11 03:14:20;;;;;;;29.88;14.80;;;;;;;;;;12982647;22;20370;-85
2023/11/11 03:19:24;;;;;;;32.00;16.08;;;;;;;;;;12983731;22;20897;-85
2023/11/11 03:24:27;;;;;;;28.92;15.27;;;;;;;;;;12982819;22;20466;-84
2023/11/11 03:29:30;;;;;;;27.50;16.20;;;;;;;;;;13005363;22;20830;-84
2023/11/11 03:34:32;;;;;;;32.67;16.90;;;;;;;;;;13005051;22;20831;-85
2023/11/11 03:39:36;;;;;;;30.85;16.17;;;;;;;;;;13001669;22;20370;-84
2023/11/11 03:44:39;;;;;;;29.42;15.52;;;;;;;;;;12982224;22;20382;-85
2023/11/11 03:49:41;;;;;;;33.43;15.67;;;;;;;;;;13004143;22;20827;-85
2023/11/11 03:54:45;;;;;;;28.50;16.73;;;;;;;;;;12983304;22;20889;-85
2023/11/11 03:59:47;;;;;;;31.10;15.83;;;;;;;;;;12982410;22;20401;-84
2023/11/11 04:04:50;;;;;;;27.33;15.65;;;;;;;;;;12983173;22;20691;-83
2023/11/11 04:09:53;;;;;;;27.30;15.50;;;;;;;;;;12981637;22;20367;-85
2023/11/11 04:14:56;;;;;;;28.60;15.40;;;;;;;;;;12981215;22;20401;-85
2023/11/11 04:19:58;;;;;;;29.05;16.30;;;;;;;;;;13002470;22;20366;-85
2023/11/11 04:25:05;;;;;;;30.40;16.63;;;;;;;;;;13003167;22;20439;-85
2023/11/11 04:30:09;;;;;;;34.95;16.67;;;;;;;;;;12982608;22;20375;-85
2023/11/11 04:35:13;;;;;;;34.10;17.10;;;;;;;;;;12981386;22;20395;-85
2023/11/11 04:40:17;;;;;;;32.17;18.10;;;;;;;;;;12982058;22;20453;-84
2023/11/11 04:45:19;;;;;;;32.53;17.27;;;;;;;;;;12981428;22;20415;-85
2023/11/11 04:50:22;;;;;;;29.95;16.75;;;;;;;;;;13002696;22;20901;-86
2023/11/11 04:55:26;;;;;;;31.35;16.58;;;;;;;;;;12980521;22;20401;-84
2023/11/11 05:00:29;;;;;;;30.30;15.88;;;;;;;;;;13001952;22;20363;-84
2023/11/11 05:05:31;;;;;;;30.40;16.17;;;;;;;;;;12980450;22;20437;-86
2023/11/11 05:10:35;;;;;;;25.67;14.88;;;;;;;;;;12980379;22;20421;-86
2023/11/11 05:15:42;;;;;;;25.00;14.00;;;;;;;;;;12981365;22;20393;-85
2023/11/11 05:20:45;;;;;;;25.02;14.07;;;;;;;;;;12980031;22;20443;-85
2023/11/11 05:25:49;;;;;;;23.13;13.85;;;;;;;;;;12980064;22;20846;-85
2023/11/11 05:30:51;;;;;;;28.17;13.80;;;;;;;;;;12983136;22;20397;-83
2023/11/11 05:35:53;;;;;;;29.00;13.87;;;;;;;;;;12980390;22;20358;-85
2023/11/11 05:40:57;;;;;;;29.70;14.38;;;;;;;;;;13002328;22;20908;-86
2023/11/11 05:46:00;;;;;;;28.70;13.73;;;;;;;;;;12979954;22;20436;-84
2023/11/11 05:51:02;;;;;;;29.05;14.32;;;;;;;;;;12979809;22;20389;-83
2023/11/11 05:56:09;;;;;;;26.23;14.83;;;;;;;;;;12952668;22;20741;-83
2023/11/11 06:01:11;;;;;;;26.80;13.93;;;;;;;;;;13001399;22;20437;-84
2023/11/11 06:06:13;;;;;;;22.57;13.43;;;;;;;;;;12979430;22;20401;-84
2023/11/11 06:11:17;;;;;;;23.88;13.07;;;;;;;;;;12999676;22;20416;-84
2023/11/11 06:16:20;;;;;;;21.13;12.50;;;;;;;;;;12978961;22;20364;-84
2023/11/11 06:21:23;;;;;;;26.13;13.10;;;;;;;;;;12980043;22;20778;-84
2023/11/11 06:26:28;;;;;;;22.95;12.68;;;;;;;;;;12978623;22;20414;-84
2023/11/11 06:31:32;;;;;;;21.70;12.45;;;;;;;;;;12999246;22;20389;-84
2023/11/11 06:36:34;;;;;;;23.37;12.80;;;;;;;;;;12977807;22;20359;-84
2023/11/11 06:41:38;;;;;;;23.92;12.85;;;;;;;;;;12977855;22;20811;-84
2023/11/11 06:46:40;;;;;;;23.97;13.37;;;;;;;;;;12998543;22;20460;-84
2023/11/11 06:51:43;;;;;;;24.52;13.52;;;;;;;;;;12976669;22;20358;-84
2023/11/11 06:56:47;;;;;;;26.83;14.25;;;;;;;;;;12977691;22;20367;-84
2023/11/11 07:01:49;;;;;;;22.38;12.77;;;;;;;;;;12976617;22;20432;-85
2023/11/11 07:06:51;;;;;;;17.73;10.65;;;;;;;;;;12977883;22;20860;-84
2023/11/11 07:11:56;;;;;;;19.05;10.25;;;;;;;;;;12972802;22;20371;-84
2023/11/11 07:16:59;;;;;;;18.50;11.50;;;;;;;;;;12977609;22;20509;-84
2023/11/11 07:22:02;;;;;;;20.23;11.80;;;;;;;;;;12978904;22;20971;-84
2023/11/11 07:27:06;;;;;;;19.75;12.13;;;;;;;;;;12978901;22;20812;-84
2023/11/11 07:32:11;;;;;;;21.92;11.85;;;;;;;;;;13000263;22;20474;-84
2023/11/11 07:37:13;;;;;;;22.97;11.90;;;;;;;;;;12979281;22;20397;-84
2023/11/11 07:42:17;;;;;;;21.42;12.73;;;;;;;;;;12979664;22;20382;-83
2023/11/11 07:47:20;;;;;;;21.42;12.65;;;;;;;;;;12978402;22;20742;-85
2023/11/11 07:52:23;;;;;;;21.50;12.70;;;;;;;;;;12978893;22;20363;-85
2023/11/11 07:57:26;;;;;;;20.77;11.52;;;;;;;;;;12981838;22;20362;-83
2023/11/11 08:02:29;;;;;;;20.97;12.60;;;;;;;;;;13003693;22;20359;-84
2023/11/11 08:07:31;;;;;;;18.13;11.85;;;;;;;;;;12981202;22;20383;-82
2023/11/11 08:12:36;;;;;;;21.02;12.82;;;;;;;;;;12982149;22;20366;-84
2023/11/11 08:17:38;;;;;;;22.30;13.50;;;;;;;;;;12975315;22;20437;-83
2023/11/11 08:22:41;;;;;;;23.02;13.55;;;;;;;;;;12978234;22;20441;-84
2023/11/11 08:27:45;;;;;;;21.55;13.55;;;;;;;;;;12979819;22;20383;-84
2023/11/11 08:32:47;;;;;;;24.80;13.93;;;;;;;;;;12979612;22;20370;-84
2023/11/11 08:37:50;;;;;;;23.05;14.20;;;;;;;;;;12979195;22;20371;-82
2023/11/11 08:42:53;;;;;;;22.73;14.07;;;;;;;;;;12978522;22;20907;-86
2023/11/11 08:47:56;;;;;;;24.63;13.77;;;;;;;;;;12974075;22;20837;-85
2023/11/11 08:52:58;;;;;;;24.02;14.38;;;;;;;;;;12978161;22;20389;-86
2023/11/11 08:58:02;;;;;;;24.48;14.20;;;;;;;;;;12978591;22;20362;-84
2023/11/11 09:03:05;;;;;;;20.33;13.37;;;;;;;;;;12981053;22;20397;-85
2023/11/11 09:08:07;;;;;;;22.77;14.15;;;;;;;;;;12978781;22;20386;-84
2023/11/11 09:13:11;;;;;;;21.88;13.90;;;;;;;;;;12977986;22;20366;-85
2023/11/11 09:18:14;;;;;;;20.65;13.23;;;;;;;;;;12999000;22;20416;-85
2023/11/11 09:23:16;;;;;;;22.60;13.40;;;;;;;;;;12997796;22;20831;-86
2023/11/11 09:28:20;;;;;;;22.98;13.68;;;;;;;;;;12998472;22;20448;-86
2023/11/11 09:33:22;;;;;;;23.45;13.68;;;;;;;;;;12976720;22;20389;-86
2023/11/11 09:38:25;;;;;;;22.58;13.70;;;;;;;;;;12999142;22;20414;-85
2023/11/11 09:43:28;;;;;;;21.80;13.55;;;;;;;;;;12970031;22;20420;-85
2023/11/11 09:48:31;;;;;;;21.80;14.03;;;;;;;;;;12972325;22;20382;-86
2023/11/11 09:53:35;;;;;;;20.97;13.23;;;;;;;;;;12976024;22;20363;-85
2023/11/11 09:58:39;;;;;;;25.48;13.93;;;;;;;;;;12976245;22;20367;-85
2023/11/11 10:03:41;;;;;;;20.97;13.00;;;;;;;;;;12977898;22;20397;-85
2023/11/11 10:08:44;;;;;;;25.03;13.10;;;;;;;;;;12974919;22;20420;-86
2023/11/11 10:13:48;;;;;;;21.63;13.37;;;;;;;;;;12975410;22;20739;-85
2023/11/11 10:18:52;;;;;;;20.17;12.00;;;;;;;;;;12973859;22;20827;-85
2023/11/11 10:23:56;;;;;;;16.73;10.05;;;;;;;;;;12972038;22;20932;-86
2023/11/11 10:29:01;;;;;;;14.20;8.73;;;;;;;;;;13004674;22;20499;-86
2023/11/11 10:34:03;;;;;;;20.35;11.20;;;;;;;;;;12976712;22;20398;-85
2023/11/11 10:39:07;;;;;;;42.50;18.75;;;;;;;;;;12977037;22;20367;-85
2023/11/11 10:44:11;;;;;;;13.88;8.13;;;;;;;;;;12977274;22;20366;-88
2023/11/11 10:49:15;;;;;;;8.93;5.88;;;;;;;;;;12979017;22;20390;-88
2023/11/11 10:54:20;;;;;;;10.07;6.60;;;;;;;;;;12981497;22;20359;-88
2023/11/11 10:59:27;;;;;;;4.50;2.92;;;;;;;;;;12977651;22;20362;-86
2023/11/11 11:04:32;;;;;;;6.05;4.45;;;;;;;;;;12977769;22;20432;-86
2023/11/11 11:09:43;;;;;;;10.75;6.80;;;;;;;;;;12974032;22;20416;-86
2023/11/11 11:14:51;;;;;;;10.63;7.35;;;;;;;;;;12970137;22;20363;-86
2023/11/11 11:19:55;;;;;;;10.45;5.72;;;;;;;;;;12971456;22;20362;-85
2023/11/11 11:24:57;;;;;;;8.07;5.07;;;;;;;;;;12972278;22;20355;-86
2023/11/11 11:30:24;;;;;;;9.20;5.85;;;;;;;;;;12992594;22;20390;-87
2023/11/11 11:35:28;;;;;;;9.20;5.37;;;;;;;;;;12999534;22;20915;-87
2023/11/11 11:40:31;;;;;;;11.45;7.07;;;;;;;;;;12981569;22;21208;-86
2023/11/11 11:45:35;;;;;;;9.70;6.90;;;;;;;;;;12980808;22;20362;-88
2023/11/11 11:50:37;;;;;;;9.40;6.55;;;;;;;;;;12980637;22;20374;-88
2023/11/11 11:55:40;;;;;;;24.23;14.68;;;;;;;;;;12981174;22;20363;-88
2023/11/11 12:00:44;;;;;;;14.93;10.03;;;;;;;;;;12967756;22;20382;-86
2023/11/11 12:05:49;;;;;;;12.07;7.30;;;;;;;;;;12967674;22;20412;-87
2023/11/11 12:10:52;;;;;;;9.57;6.35;;;;;;;;;;12981275;22;20397;-86
2023/11/11 12:15:55;;;;;;;12.40;8.02;;;;;;;;;;12982136;22;20379;-88
2023/11/11 12:20:58;;;;;;;10.38;6.10;;;;;;;;;;12969064;22;20370;-87
2023/11/11 12:26:01;;;;;;;11.03;7.03;;;;;;;;;;12969788;22;20378;-88
2023/11/11 12:31:05;;;;;;;16.60;12.35;;;;;;;;;;12972996;22;20382;-87
2023/11/11 12:36:08;;;;;;;10.55;7.28;;;;;;;;;;13010151;22;20370;-87
2023/11/11 12:41:14;;;;;;;8.98;5.60;;;;;;;;;;12988245;22;20366;-86
2023/11/11 12:46:18;;;;;;;12.10;7.60;;;;;;;;;;12964873;22;20379;-86
2023/11/11 12:51:30;;;;;;;12.77;7.80;;;;;;;;;;12965251;22;20436;-86
2023/11/11 12:56:32;;;;;;;13.73;8.80;;;;;;;;;;12968541;22;20367;-85
2023/11/11 13:01:39;;;;;;;15.40;9.85;;;;;;;;;;12965762;22;20444;-85
2023/11/11 13:06:42;;;;;;;16.98;11.25;;;;;;;;;;12966003;22;20394;-87
2023/11/11 13:11:46;;;;;;;18.02;11.77;;;;;;;;;;12969283;22;20383;-86
2023/11/11 13:16:50;;;;;;;17.80;12.40;;;;;;;;;;12966680;22;20452;-86
2023/11/11 13:21:52;;;;;;;19.05;12.25;;;;;;;;;;12966905;22;20436;-86
2023/11/11 13:26:55;;;;;;;18.10;11.23;;;;;;;;;;12964177;22;20908;-86
2023/11/11 13:31:58;;;;;;;19.03;12.40;;;;;;;;;;12961565;22;20410;-86
2023/11/11 13:37:01;;;;;;;16.27;11.40;;;;;;;;;;12973568;22;20378;-87
2023/11/11 13:42:07;;;;;;;15.03;10.23;;;;;;;;;;12970169;22;20449;-88
2023/11/11 13:47:12;;;;;;;14.15;9.88;;;;;;;;;;12963886;22;20394;-88
2023/11/11 13:52:15;;;;;;;16.53;10.43;;;;;;;;;;12967585;22;20378;-88
2023/11/11 13:57:20;;;;;;;16.95;12.43;;;;;;;;;;12972614;22;20363;-89
2023/11/11 14:02:24;;;;;;;15.30;10.60;;;;;;;;;;12974641;22;20433;-95
2023/11/11 14:07:27;;;;;;;16.48;10.70;;;;;;;;;;12980516;22;20378;-94
2023/11/11 14:12:29;;;;;;;24.75;14.13;;;;;;;;;;12999297;22;20417;-94
2023/11/11 14:17:33;;;;;;;15.50;11.37;;;;;;;;;;12972026;22;20747;-86
2023/11/11 14:22:35;;;;;;;17.55;11.60;;;;;;;;;;12975443;22;20367;-93
2023/11/11 14:27:40;;;;;;;17.03;11.17;;;;;;;;;;12973610;22;20379;-96
2023/11/11 14:32:44;;;;;;;15.98;10.35;;;;;;;;;;12970177;22;20371;-94
2023/11/11 14:37:46;;;;;;;16.20;10.07;;;;;;;;;;12976565;22;20784;-91
2023/11/11 14:42:51;;;;;;;14.00;9.48;;;;;;;;;;13010769;22;20680;-92
2023/11/11 14:47:56;;;;;;;13.67;9.40;;;;;;;;;;12972976;22;20378;-85
2023/11/11 14:52:59;;;;;;;13.98;9.18;;;;;;;;;;12965598;22;20897;-85
2023/11/11 14:58:01;;;;;;;14.77;9.30;;;;;;;;;;12961741;22;20410;-85
2023/11/11 15:03:06;;;;;;;16.90;10.57;;;;;;;;;;12966859;22;20371;-85
2023/11/11 15:08:08;;;;;;;15.88;9.98;;;;;;;;;;12970237;22;20457;-88
2023/11/11 15:13:12;;;;;;;18.05;10.82;;;;;;;;;;12971912;22;20378;-86
2023/11/11 15:18:16;;;;;;;17.13;10.90;;;;;;;;;;12985395;22;20436;-95
2023/11/11 15:23:24;;;;;;;17.15;11.77;;;;;;;;;;12981181;22;20444;-92
2023/11/11 15:28:27;;;;;;;20.85;12.60;;;;;;;;;;12996715;22;20378;-95
2023/11/11 15:33:31;;;;;;;19.42;12.13;;;;;;;;;;12979549;22;20413;-88
2023/11/11 15:38:33;;;;;;;20.00;12.70;;;;;;;;;;12972447;22;20472;-86
2023/11/11 15:43:35;;;;;;;22.60;13.75;;;;;;;;;;12984506;22;20374;-87
2023/11/11 15:48:40;;;;;;;24.10;14.63;;;;;;;;;;12969469;22;20386;-87
2023/11/11 15:53:42;;;;;;;26.58;15.57;;;;;;;;;;12973336;22;20362;-88
2023/11/11 15:58:46;;;;;;;31.90;16.60;;;;;;;;;;12971982;22;20378;-86
2023/11/11 16:03:51;;;;;;;32.80;17.23;;;;;;;;;;12972273;22;20382;-87
2023/11/11 16:08:53;;;;;;;32.03;18.60;;;;;;;;;;12981027;22;20468;-87
2023/11/11 16:14:00;;;;;;;32.27;18.20;;;;;;;;;;12968369;22;20486;-88
2023/11/11 16:19:05;;;;;;;34.80;18.30;;;;;;;;;;12970397;22;20382;-87
2023/11/11 16:24:09;;;;;;;35.03;19.47;;;;;;;;;;12972062;22;20405;-88
2023/11/11 16:29:12;;;;;;;34.80;19.90;;;;;;;;;;12973352;22;20442;-88
2023/11/11 16:34:22;;;;;;;35.50;19.60;;;;;;;;;;12965327;22;21050;-86
2023/11/11 16:39:24;;;;;;;38.20;21.08;;;;;;;;;;12970773;22;20374;-88
2023/11/11 16:44:27;;;;;;;39.50;21.35;;;;;;;;;;12989923;22;20924;-88
2023/11/11 16:49:31;;;;;;;37.50;20.55;;;;;;;;;;12987660;22;20405;-87
2023/11/11 16:54:33;;;;;;;37.97;20.02;;;;;;;;;;12967939;22;20695;-87
2023/11/11 16:59:35;;;;;;;42.50;23.15;;;;;;;;;;12969247;22;20367;-87
2023/11/11 17:04:39;;;;;;;45.97;27.23;;;;;;;;;;12971912;22;20382;-87
2023/11/11 17:09:42;;;;;;;52.55;27.30;;;;;;;;;;12970724;22;20390;-87
2023/11/11 17:14:45;;;;;;;43.60;23.90;;;;;;;;;;12972687;22;20375;-87
2023/11/11 17:19:49;;;;;;;48.40;27.17;;;;;;;;;;12968466;22;20758;-86
2023/11/11 17:24:52;;;;;;;47.30;25.20;;;;;;;;;;12977830;22;20374;-86
2023/11/11 17:29:54;;;;;;;44.55;25.17;;;;;;;;;;12979387;22;20427;-88
2023/11/11 17:34:58;;;;;;;42.67;23.83;;;;;;;;;;12980181;22;20363;-87
2023/11/11 17:40:00;;;;;;;43.60;24.98;;;;;;;;;;12978810;22;20466;-88
2023/11/11 17:45:03;;;;;;;43.55;25.10;;;;;;;;;;12996439;22;20444;-88
2023/11/11 17:50:09;;;;;;;45.22;25.35;;;;;;;;;;12957143;22;20383;-86
2023/11/11 17:55:11;;;;;;;47.22;24.42;;;;;;;;;;12950867;22;20480;-86
2023/11/11 18:00:15;;;;;;;47.10;25.23;;;;;;;;;;12973077;22;20363;-86
2023/11/11 18:05:21;;;;;;;48.92;27.40;;;;;;;;;;12977310;22;20456;-86
2023/11/11 18:10:23;;;;;;;46.57;25.37;;;;;;;;;;12952541;22;20386;-86
2023/11/11 18:15:26;;;;;;;46.45;24.80;;;;;;;;;;12955740;22;20366;-86
2023/11/11 18:20:31;;;;;;;45.10;24.75;;;;;;;;;;12958767;22;20396;-87
2023/11/11 18:25:38;;;;;;;45.75;24.73;;;;;;;;;;12956847;22;20468;-86
2023/11/11 18:30:41;;;;;;;45.53;25.27;;;;;;;;;;12951565;22;20375;-86
2023/11/11 18:35:46;;;;;;;43.30;22.60;;;;;;;;;;12954656;22;20428;-87
2023/11/11 18:40:48;;;;;;;42.53;23.42;;;;;;;;;;12966640;22;20347;-86
2023/11/11 18:45:51;;;;;;;43.07;24.77;;;;;;;;;;12961930;22;20367;-86
2023/11/11 18:50:55;;;;;;;40.83;23.37;;;;;;;;;;12985079;22;20374;-85
2023/11/11 18:55:57;;;;;;;39.67;23.33;;;;;;;;;;12948834;22;20375;-84
2023/11/11 19:01:00;;;;;;;38.73;22.40;;;;;;;;;;12953139;22;20366;-83
2023/11/11 19:06:04;;;;;;;39.05;23.67;;;;;;;;;;12954249;22;20370;-85
2023/11/11 19:11:07;;;;;;;44.60;27.57;;;;;;;;;;12947444;22;20410;-86
2023/11/11 19:16:10;;;;;;;40.33;23.02;;;;;;;;;;12945808;22;20358;-86
2023/11/11 19:21:14;;;;;;;41.50;23.63;;;;;;;;;;12958355;22;20359;-86
2023/11/11 19:26:20;;;;;;;41.38;23.60;;;;;;;;;;12954267;22;20708;-85
2023/11/11 19:31:23;;;;;;;41.65;24.17;;;;;;;;;;12950430;22;20475;-85
2023/11/11 19:36:27;;;;;;;42.13;24.38;;;;;;;;;;12953261;22;21195;-86
2023/11/11 19:41:29;;;;;;;54.25;30.83;;;;;;;;;;12982824;22;20367;-84
2023/11/11 19:46:32;;;;;;;55.65;29.75;;;;;;;;;;12955706;22;20367;-85
2023/11/11 19:51:37;;;;;;;81.10;36.83;;;;;;;;;;12955190;22;20897;-86
2023/11/11 19:56:40;;;;;;;59.20;26.50;;;;;;;;;;12950220;22;20714;-87
2023/11/11 20:01:42;;;;;;;42.05;23.60;;;;;;;;;;12972331;22;20374;-85
2023/11/11 20:07:11;;;;;;;38.88;21.92;;;;;;;;;;12976164;22;20433;-87
2023/11/11 20:12:17;;;;;;;44.13;25.50;;;;;;;;;;12976954;22;20379;-85
2023/11/11 20:17:19;;;;;;;50.53;30.52;;;;;;;;;;12976428;22;20362;-84
2023/11/11 20:22:24;;;;;;;55.05;29.10;;;;;;;;;;12970966;22;20374;-85
2023/11/11 20:27:26;;;;;;;53.63;29.93;;;;;;;;;;12971594;22;20366;-85
2023/11/11 20:32:28;;;;;;;58.95;30.42;;;;;;;;;;12982377;22;20386;-85
2023/11/11 20:37:34;;;;;;;57.88;31.13;;;;;;;;;;12985892;22;20420;-86
2023/11/11 20:42:36;;;;;;;45.72;26.40;;;;;;;;;;12975758;22;20397;-86
2023/11/11 20:47:39;;;;;;;44.50;25.80;;;;;;;;;;12974391;22;20835;-86
2023/11/11 20:52:44;;;;;;;44.65;25.05;;;;;;;;;;12975796;22;20438;-86
2023/11/11 20:57:47;;;;;;;41.83;24.95;;;;;;;;;;12973997;22;20401;-86
2023/11/11 21:02:49;;;;;;;46.10;24.63;;;;;;;;;;12973787;22;20367;-86
2023/11/11 21:07:53;;;;;;;40.38;24.02;;;;;;;;;;12972661;22;20413;-86
2023/11/11 21:12:59;;;;;;;41.88;23.30;;;;;;;;;;12995255;22;20374;-85
2023/11/11 21:18:01;;;;;;;40.37;23.17;;;;;;;;;;12977106;22;20405;-86
2023/11/11 21:23:05;;;;;;;42.90;24.20;;;;;;;;;;12977880;22;20370;-85
2023/11/11 21:28:08;;;;;;;41.78;23.50;;;;;;;;;;12966497;22;20366;-85
2023/11/11 21:33:10;;;;;;;39.00;23.13;;;;;;;;;;12952208;22;20492;-85
2023/11/11 21:38:15;;;;;;;41.10;23.17;;;;;;;;;;12963431;22;20428;-84
2023/11/11 21:43:18;;;;;;;36.97;21.67;;;;;;;;;;12955452;22;20664;-84
2023/11/11 21:48:20;;;;;;;37.15;21.85;;;;;;;;;;12963015;22;20745;-83
2023/11/11 21:53:24;;;;;;;35.45;20.83;;;;;;;;;;12957327;22;20382;-85
2023/11/11 21:58:26;;;;;;;36.43;20.83;;;;;;;;;;12961960;22;20371;-85
2023/11/11 22:03:28;;;;;;;34.87;19.73;;;;;;;;;;12952207;22;20843;-85
2023/11/11 22:08:33;;;;;;;32.97;19.55;;;;;;;;;;12977153;22;20424;-84
2023/11/11 22:13:35;;;;;;;34.03;19.42;;;;;;;;;;12967634;22;20762;-84
2023/11/11 22:18:38;;;;;;;36.97;19.23;;;;;;;;;;12951791;22;20367;-85
2023/11/11 22:23:42;;;;;;;31.83;18.95;;;;;;;;;;12959730;22;20371;-85
2023/11/11 22:28:45;;;;;;;30.52;18.35;;;;;;;;;;12971115;22;20436;-86
2023/11/11 22:33:47;;;;;;;27.45;16.95;;;;;;;;;;12973566;22;20355;-84
2023/11/11 22:38:51;;;;;;;29.13;16.77;;;;;;;;;;12984642;22;20514;-85
2023/11/11 22:43:53;;;;;;;27.40;16.80;;;;;;;;;;12969098;22;20363;-85
2023/11/11 22:48:56;;;;;;;26.92;16.10;;;;;;;;;;12952336;22;20433;-84
2023/11/11 22:54:00;;;;;;;26.40;15.68;;;;;;;;;;12948162;22;20618;-85
2023/11/11 22:59:02;;;;;;;26.93;15.87;;;;;;;;;;12961649;22;20367;-86
2023/11/11 23:04:05;;;;;;;27.40;15.65;;;;;;;;;;12963811;22;20371;-86
2023/11/11 23:09:09;;;;;;;22.55;14.70;;;;;;;;;;12980946;22;20359;-85
2023/11/11 23:14:11;;;;;;;24.85;14.95;;;;;;;;;;12944338;22;20371;-86
2023/11/11 23:19:13;;;;;;;23.20;13.98;;;;;;;;;;12947397;22;20379;-85
2023/11/11 23:24:17;;;;;;;21.20;13.95;;;;;;;;;;12951777;22;20374;-85
2023/11/11 23:29:20;;;;;;;22.80;13.73;;;;;;;;;;12959405;22;20397;-86
2023/11/11 23:34:24;;;;;;;23.17;14.38;;;;;;;;;;12987637;22;20393;-85
2023/11/11 23:39:28;;;;;;;22.23;13.48;;;;;;;;;;12977912;22;20371;-85
2023/11/11 23:44:30;;;;;;;20.52;12.65;;;;;;;;;;12985041;22;20392;-84
2023/11/11 23:49:32;;;;;;;22.33;13.00;;;;;;;;;;12969381;22;20378;-85
2023/11/11 23:54:36;;;;;;;20.60;12.43;;;;;;;;;;12957809;22;21230;-86
2023/11/11 23:59:39;;;;;;;19.73;12.05;;;;;;;;;;12954712;22;20445;-86
